createdAt,value
2022-11-21T00:01:23.768Z,8.90
2022-11-21T00:03:56.291Z,8.91
2022-11-21T00:06:28.842Z,8.88
2022-11-21T00:09:04.027Z,8.87
2022-11-21T00:11:36.499Z,8.86
2022-11-21T00:14:08.897Z,8.87
2022-11-21T00:16:41.259Z,8.87
2022-11-21T00:19:13.578Z,8.86
2022-11-21T00:21:45.804Z,8.85
2022-11-21T00:24:18.044Z,8.81
2022-11-21T00:26:50.565Z,8.77
2022-11-21T00:29:22.926Z,8.76
2022-11-21T00:31:55.486Z,8.75
2022-11-21T00:34:28.114Z,8.73
2022-11-21T00:37:01.299Z,8.72
2022-11-21T00:39:34.413Z,8.70
2022-11-21T00:42:07.443Z,8.63
2022-11-21T00:44:40.635Z,8.58
2022-11-21T00:47:13.409Z,8.53
2022-11-21T00:49:46.195Z,8.47
2022-11-21T00:52:19.891Z,8.42
2022-11-21T00:54:52.455Z,8.40
2022-11-21T00:57:25.267Z,8.40
2022-11-21T00:59:59.312Z,8.40
2022-11-21T01:02:33.201Z,8.38
2022-11-21T01:05:06.585Z,8.36
2022-11-21T01:07:39.167Z,8.34
2022-11-21T01:10:12.799Z,8.32
2022-11-21T01:12:46.023Z,8.32
2022-11-21T01:15:18.860Z,8.34
2022-11-21T01:17:51.155Z,8.34
2022-11-21T01:20:24.676Z,8.33
2022-11-21T01:22:57.020Z,8.30
2022-11-21T01:25:30.214Z,8.29
2022-11-21T01:28:02.976Z,8.24
2022-11-21T01:30:36.129Z,8.11
2022-11-21T01:33:08.774Z,8.01
2022-11-21T01:35:41.374Z,7.93
2022-11-21T01:38:14.266Z,7.86
2022-11-21T01:40:47.710Z,7.85
2022-11-21T01:43:20.456Z,7.86
2022-11-21T01:46:00.612Z,7.84
2022-11-21T01:48:39.188Z,7.82
2022-11-21T01:51:17.595Z,7.81
2022-11-21T01:53:58.388Z,7.82
2022-11-21T01:56:34.707Z,7.85
2022-11-21T01:59:11.238Z,7.88
2022-11-21T02:01:46.654Z,7.89
2022-11-21T02:04:20.885Z,7.87
2022-11-21T02:06:54.459Z,7.86
2022-11-21T02:09:28.467Z,7.87
2022-11-21T02:12:05.862Z,7.87
2022-11-21T02:14:40.359Z,7.89
2022-11-21T02:17:13.146Z,7.90
2022-11-21T02:19:52.010Z,7.89
2022-11-21T02:22:39.368Z,7.84
2022-11-21T02:25:16.381Z,7.77
2022-11-21T02:27:56.743Z,7.72
2022-11-21T02:30:32.898Z,7.69
2022-11-21T02:33:05.106Z,7.67
2022-11-21T02:35:38.343Z,7.66
2022-11-21T02:38:19.830Z,7.66
2022-11-21T02:41:00.494Z,7.68
2022-11-21T02:43:39.809Z,7.68
2022-11-21T02:46:13.004Z,7.67
2022-11-21T02:48:47.837Z,7.66
2022-11-21T02:51:20.720Z,7.63
2022-11-21T02:53:53.773Z,7.62
2022-11-21T02:56:26.666Z,7.61
2022-11-21T02:59:00.515Z,7.61
2022-11-21T03:01:33.139Z,7.58
2022-11-21T03:04:05.902Z,7.55
2022-11-21T03:06:38.540Z,7.50
2022-11-21T03:09:12.847Z,7.47
2022-11-21T03:11:45.669Z,7.47
2022-11-21T03:14:18.796Z,7.47
2022-11-21T03:16:52.797Z,7.47
2022-11-21T03:19:25.577Z,7.49
2022-11-21T03:21:58.586Z,7.52
2022-11-21T03:24:32.535Z,7.50
2022-11-21T03:27:05.690Z,7.46
2022-11-21T03:29:39.383Z,7.41
2022-11-21T03:32:13.766Z,7.35
2022-11-21T03:34:46.680Z,7.25
2022-11-21T03:37:20.216Z,7.14
2022-11-21T03:39:53.264Z,7.02
2022-11-21T03:42:26.079Z,6.87
2022-11-21T03:45:00.534Z,6.71
2022-11-21T03:47:32.886Z,6.60
2022-11-21T03:50:05.644Z,6.49
2022-11-21T03:52:38.355Z,6.37
2022-11-21T03:55:11.871Z,6.24
2022-11-21T03:57:44.545Z,6.11
2022-11-21T04:00:19.769Z,6.02
2022-11-21T04:02:52.207Z,5.96
2022-11-21T04:05:24.869Z,5.93
2022-11-21T04:07:58.216Z,5.90
2022-11-21T04:10:31.874Z,5.92
2022-11-21T04:13:04.643Z,5.99
2022-11-21T04:15:37.748Z,5.98
2022-11-21T04:18:10.608Z,5.93
2022-11-21T04:20:43.743Z,5.84
2022-11-21T04:23:16.403Z,5.82
2022-11-21T04:25:49.799Z,5.88
2022-11-21T04:28:23.818Z,5.95
2022-11-21T04:30:59.344Z,6.02
2022-11-21T04:33:34.173Z,6.07
2022-11-21T04:36:07.144Z,6.15
2022-11-21T04:38:41.119Z,6.22
2022-11-21T04:41:14.584Z,6.28
2022-11-21T04:43:47.822Z,6.35
2022-11-21T04:46:21.048Z,6.41
2022-11-21T04:48:53.611Z,6.45
2022-11-21T04:51:26.247Z,6.49
2022-11-21T04:53:59.379Z,6.52
2022-11-21T04:56:32.165Z,6.53
2022-11-21T04:59:05.113Z,6.54
2022-11-21T05:01:39.155Z,6.54
2022-11-21T05:04:12.546Z,6.53
2022-11-21T05:06:47.146Z,6.53
2022-11-21T05:09:20.640Z,6.50
2022-11-21T05:12:11.193Z,6.47
2022-11-21T05:14:44.061Z,6.43
2022-11-21T05:17:18.903Z,6.41
2022-11-21T05:19:51.938Z,6.42
2022-11-21T05:22:24.386Z,6.42
2022-11-21T05:24:56.878Z,6.43
2022-11-21T05:27:29.695Z,6.44
2022-11-21T05:30:03.301Z,6.43
2022-11-21T05:32:36.703Z,6.40
2022-11-21T05:35:10.474Z,6.38
2022-11-21T05:37:43.542Z,6.35
2022-11-21T05:40:19.171Z,6.36
2022-11-21T05:43:10.819Z,6.36
2022-11-21T05:45:44.140Z,6.37
2022-11-21T05:48:16.514Z,6.39
2022-11-21T05:50:52.427Z,6.41
2022-11-21T05:53:25.003Z,6.43
2022-11-21T05:56:02.498Z,6.45
2022-11-21T05:58:35.606Z,6.48
2022-11-21T06:01:11.763Z,6.48
2022-11-21T06:03:45.543Z,6.52
2022-11-21T06:06:23.624Z,6.54
2022-11-21T06:08:58.051Z,6.56
2022-11-21T06:11:31.568Z,6.58
2022-11-21T06:14:04.455Z,6.59
2022-11-21T06:16:37.351Z,6.58
2022-11-21T06:19:12.351Z,6.59
2022-11-21T06:21:46.559Z,6.59
2022-11-21T06:24:22.320Z,6.58
2022-11-21T06:26:56.593Z,6.58
2022-11-21T06:29:29.075Z,6.53
2022-11-21T06:32:02.247Z,6.46
2022-11-21T06:34:36.573Z,6.49
2022-11-21T06:37:09.536Z,6.51
2022-11-21T06:39:42.266Z,6.52
2022-11-21T06:42:15.475Z,6.47
2022-11-21T06:44:48.013Z,6.45
2022-11-21T06:47:23.402Z,6.45
2022-11-21T06:49:56.215Z,6.45
2022-11-21T06:52:28.896Z,6.44
2022-11-21T06:55:01.844Z,6.41
2022-11-21T06:57:34.203Z,6.39
2022-11-21T07:00:08.322Z,6.38
2022-11-21T07:02:40.606Z,6.37
2022-11-21T07:05:13.151Z,6.35
2022-11-21T07:07:45.625Z,6.32
2022-11-21T07:10:18.144Z,6.29
2022-11-21T07:13:07.804Z,6.29
2022-11-21T07:15:40.281Z,6.27
2022-11-21T07:18:12.710Z,6.29
2022-11-21T07:20:45.034Z,6.33
2022-11-21T07:23:17.296Z,6.38
2022-11-21T07:25:49.599Z,6.41
2022-11-21T07:28:22.455Z,6.44
2022-11-21T07:30:56.817Z,6.41
2022-11-21T07:33:29.603Z,6.38
2022-11-21T07:36:01.925Z,6.37
2022-11-21T07:38:34.244Z,6.40
2022-11-21T07:41:06.523Z,6.39
2022-11-21T07:43:38.829Z,6.40
2022-11-21T07:46:11.056Z,6.43
2022-11-21T07:48:43.288Z,6.41
2022-11-21T07:51:15.569Z,6.40
2022-11-21T07:53:47.831Z,6.41
2022-11-21T07:56:20.062Z,6.43
2022-11-21T07:58:54.712Z,6.41
2022-11-21T08:01:27.153Z,6.45
2022-11-21T08:03:59.526Z,6.50
2022-11-21T08:06:31.779Z,6.57
2022-11-21T08:09:04.597Z,6.61
2022-11-21T08:11:38.867Z,6.67
2022-11-21T08:14:11.153Z,6.72
2022-11-21T08:16:43.361Z,6.75
2022-11-21T08:19:15.688Z,6.75
2022-11-21T08:21:47.917Z,6.73
2022-11-21T08:24:20.240Z,6.71
2022-11-21T08:26:52.983Z,6.69
2022-11-21T08:29:26.456Z,6.69
2022-11-21T08:31:59.046Z,6.71
2022-11-21T08:34:33.758Z,6.75
2022-11-21T08:37:09.951Z,6.75
2022-11-21T08:39:47.146Z,6.72
2022-11-21T08:42:21.839Z,6.80
2022-11-21T08:44:54.179Z,6.83
2022-11-21T08:47:26.583Z,6.84
2022-11-21T08:50:01.982Z,6.86
2022-11-21T08:52:39.340Z,6.93
2022-11-21T08:55:23.478Z,6.98
2022-11-21T08:57:58.084Z,7.05
2022-11-21T09:00:30.612Z,7.12
2022-11-21T09:03:07.353Z,7.19
2022-11-21T09:05:39.619Z,7.24
2022-11-21T09:08:11.980Z,7.29
2022-11-21T09:10:44.610Z,7.33
2022-11-21T09:13:16.919Z,7.38
2022-11-21T09:16:02.945Z,7.42
2022-11-21T09:18:35.182Z,7.47
2022-11-21T09:21:07.491Z,7.50
2022-11-21T09:23:39.881Z,7.56
2022-11-21T09:26:12.726Z,7.63
2022-11-21T09:28:45.043Z,7.65
2022-11-21T09:31:17.415Z,7.67
2022-11-21T09:33:54.620Z,7.72
2022-11-21T09:36:27.617Z,7.73
2022-11-21T09:38:59.918Z,7.71
2022-11-21T09:41:57.157Z,7.65
2022-11-21T09:44:54.186Z,7.51
2022-11-21T09:47:29.380Z,7.46
2022-11-21T09:50:04.051Z,7.47
2022-11-21T09:52:42.690Z,7.49
2022-11-21T09:55:25.133Z,7.53
2022-11-21T09:57:59.066Z,7.56
2022-11-21T10:00:32.020Z,7.55
2022-11-21T10:03:04.568Z,7.55
2022-11-21T10:05:42.828Z,7.55
2022-11-21T10:08:25.445Z,7.54
2022-11-21T10:11:10.236Z,7.52
2022-11-21T10:14:08.377Z,7.47
2022-11-21T10:16:51.517Z,7.44
2022-11-21T10:19:39.766Z,7.41
2022-11-21T10:22:49.602Z,7.40
2022-11-21T10:25:27.555Z,7.36
2022-11-21T10:28:03.978Z,7.32
2022-11-21T10:30:37.064Z,7.32
2022-11-21T10:33:19.573Z,7.33
2022-11-21T10:35:56.762Z,7.35
2022-11-21T10:38:30.566Z,7.36
2022-11-21T10:41:08.823Z,7.34
2022-11-21T10:44:03.238Z,7.31
2022-11-21T10:46:35.527Z,7.29
2022-11-21T10:49:13.686Z,7.28
2022-11-21T10:51:53.041Z,7.29
2022-11-21T10:54:34.523Z,7.30
2022-11-21T10:57:13.645Z,7.30
2022-11-21T11:00:01.007Z,7.31
2022-11-21T11:02:33.264Z,7.34
2022-11-21T11:05:28.939Z,7.36
2022-11-21T11:08:07.133Z,7.36
2022-11-21T11:10:41.562Z,7.38
2022-11-21T11:13:45.828Z,7.39
2022-11-21T11:16:22.666Z,7.45
2022-11-21T11:19:00.174Z,7.44
2022-11-21T11:21:44.327Z,7.45
2022-11-21T11:24:27.952Z,7.47
2022-11-21T11:27:02.899Z,7.48
2022-11-21T11:29:50.757Z,7.48
2022-11-21T11:32:24.001Z,7.49
2022-11-21T11:35:01.571Z,7.50
2022-11-21T11:37:41.009Z,7.54
2022-11-21T11:40:26.968Z,7.60
2022-11-21T11:43:32.638Z,7.66
2022-11-21T11:46:52.737Z,7.74
2022-11-21T11:49:56.070Z,7.77
2022-11-21T11:52:33.136Z,7.79
2022-11-21T11:55:15.922Z,7.79
2022-11-21T11:57:51.819Z,7.78
2022-11-21T12:00:26.902Z,7.74
2022-11-21T12:03:03.465Z,7.76
2022-11-21T12:05:38.615Z,7.76
2022-11-21T12:08:40.937Z,7.79
2022-11-21T12:11:39.744Z,7.79
2022-11-21T12:14:35.587Z,7.79
2022-11-21T12:17:10.325Z,7.81
2022-11-21T12:19:42.592Z,7.83
2022-11-21T12:22:14.837Z,7.86
2022-11-21T12:24:48.089Z,7.88
2022-11-21T12:27:28.630Z,7.91
2022-11-21T12:30:22.001Z,7.93
2022-11-21T12:33:07.911Z,7.97
2022-11-21T12:36:16.329Z,8.00
2022-11-21T12:39:07.107Z,8.02
2022-11-21T12:42:07.572Z,8.05
2022-11-21T12:45:04.798Z,8.07
2022-11-21T12:48:12.562Z,8.11
2022-11-21T12:51:13.048Z,8.14
2022-11-21T12:54:08.078Z,8.19
2022-11-21T12:56:49.813Z,8.22
2022-11-21T12:59:23.594Z,8.24
2022-11-21T13:02:05.128Z,8.25
2022-11-21T13:04:42.018Z,8.30
2022-11-21T13:07:15.487Z,8.35
2022-11-21T13:09:52.070Z,8.40
2022-11-21T13:12:29.824Z,8.46
2022-11-21T13:15:14.794Z,8.52
2022-11-21T13:17:53.681Z,8.57
2022-11-21T13:20:33.570Z,8.62
2022-11-21T13:23:28.793Z,8.69
2022-11-21T13:26:01.067Z,8.72
2022-11-21T13:28:39.540Z,8.75
2022-11-21T13:31:34.541Z,8.76
2022-11-21T13:34:27.920Z,8.79
2022-11-21T13:37:01.263Z,8.80
2022-11-21T13:39:36.292Z,8.82
2022-11-21T13:42:31.600Z,8.84
2022-11-21T13:45:43.954Z,8.81
2022-11-21T13:48:47.127Z,8.79
2022-11-21T13:51:46.140Z,8.78
2022-11-21T13:54:51.075Z,8.80
2022-11-21T13:57:35.613Z,8.79
2022-11-21T14:00:23.435Z,8.80
2022-11-21T14:03:17.069Z,8.84
2022-11-21T14:06:12.168Z,8.84
2022-11-21T14:08:46.438Z,8.82
2022-11-21T14:11:37.902Z,8.79
2022-11-21T14:14:11.879Z,8.77
2022-11-21T14:16:50.191Z,8.75
2022-11-21T14:19:23.322Z,8.66
2022-11-21T14:21:56.363Z,8.61
2022-11-21T14:24:29.273Z,8.53
2022-11-21T14:27:02.125Z,8.45
2022-11-21T14:29:42.927Z,8.42
2022-11-21T14:32:18.678Z,8.40
2022-11-21T14:34:50.950Z,8.37
2022-11-21T14:37:23.887Z,8.36
2022-11-21T14:39:57.940Z,8.36
2022-11-21T14:42:38.865Z,8.36
2022-11-21T14:45:20.283Z,8.34
2022-11-21T14:47:54.284Z,8.33
2022-11-21T14:50:35.094Z,8.31
2022-11-21T14:53:07.733Z,8.33
2022-11-21T14:55:40.232Z,8.31
2022-11-21T14:58:17.749Z,8.30
2022-11-21T15:01:07.847Z,8.32
2022-11-21T15:03:40.219Z,8.30
2022-11-21T15:06:14.277Z,8.28
2022-11-21T15:11:45.127Z,8.22
2022-11-21T15:14:27.891Z,8.19
2022-11-21T15:17:04.248Z,8.16
2022-11-21T15:19:36.731Z,8.15
2022-11-21T15:22:21.663Z,8.12
2022-11-21T15:25:07.193Z,8.07
2022-11-21T15:27:39.576Z,8.03
2022-11-21T15:30:26.404Z,7.99
2022-11-21T15:33:15.904Z,7.97
2022-11-21T15:35:56.932Z,7.93
2022-11-21T15:38:41.700Z,7.94
2022-11-21T15:41:29.477Z,7.94
2022-11-21T15:44:21.404Z,7.94
2022-11-21T15:46:55.575Z,7.96
2022-11-21T15:49:34.849Z,7.95
2022-11-21T15:52:13.549Z,7.93
2022-11-21T15:54:47.176Z,7.92
2022-11-21T15:57:22.151Z,7.92
2022-11-21T15:59:55.289Z,7.94
2022-11-21T16:02:27.542Z,7.97
2022-11-21T16:05:00.088Z,7.99
2022-11-21T16:07:32.628Z,8.00
2022-11-21T16:10:05.249Z,8.01
2022-11-21T16:12:37.561Z,8.04
2022-11-21T16:15:11.667Z,8.04
2022-11-21T16:17:46.062Z,8.07
2022-11-21T16:20:20.341Z,8.06
2022-11-21T16:22:52.637Z,8.04
2022-11-21T16:25:24.915Z,8.04
2022-11-21T16:27:57.280Z,8.04
2022-11-21T16:30:29.585Z,8.03
2022-11-21T16:33:04.385Z,8.04
2022-11-21T16:35:39.342Z,8.06
2022-11-21T16:38:12.504Z,8.07
2022-11-21T16:40:54.226Z,8.08
2022-11-21T16:43:27.759Z,8.07
2022-11-21T16:46:10.236Z,8.05
2022-11-21T16:48:42.738Z,8.04
2022-11-21T16:51:18.113Z,8.02
2022-11-21T16:53:52.203Z,8.02
2022-11-21T16:56:24.519Z,8.02
2022-11-21T16:58:56.902Z,8.01
2022-11-21T17:01:29.644Z,7.98
2022-11-21T17:04:02.276Z,7.93
2022-11-21T17:06:34.684Z,7.91
2022-11-21T17:09:07.160Z,7.87
2022-11-21T17:11:39.565Z,7.87
2022-11-21T17:14:14.529Z,7.86
2022-11-21T17:16:48.991Z,7.86
2022-11-21T17:19:21.292Z,7.87
2022-11-21T17:21:53.706Z,7.88
2022-11-21T17:24:26.770Z,7.86
2022-11-21T17:27:01.239Z,7.87
2022-11-21T17:29:33.702Z,7.86
2022-11-21T17:32:06.142Z,7.85
2022-11-21T17:34:38.846Z,7.85
2022-11-21T17:37:11.615Z,7.88
2022-11-21T17:39:44.054Z,7.87
2022-11-21T17:42:16.805Z,7.85
2022-11-21T17:44:49.726Z,7.84
2022-11-21T17:47:22.022Z,7.82
2022-11-21T17:49:54.424Z,7.82
2022-11-21T17:52:26.820Z,7.84
2022-11-21T17:54:59.110Z,7.86
2022-11-21T17:57:31.510Z,7.86
2022-11-21T18:00:03.980Z,7.84
2022-11-21T18:02:36.473Z,7.82
2022-11-21T18:05:09.306Z,7.81
2022-11-21T18:07:42.061Z,7.77
2022-11-21T18:10:41.472Z,7.77
2022-11-21T18:13:07.380Z,7.75
2022-11-21T18:15:39.736Z,7.77
2022-11-21T18:18:12.160Z,7.78
2022-11-21T18:20:44.534Z,7.79
2022-11-21T18:23:16.858Z,7.81
2022-11-21T18:25:49.238Z,7.84
2022-11-21T18:28:21.870Z,7.86
2022-11-21T18:30:54.217Z,7.88
2022-11-21T18:33:26.491Z,7.88
2022-11-21T18:35:58.899Z,7.88
2022-11-21T18:38:48.486Z,7.88
2022-11-21T18:41:24.434Z,7.90
2022-11-21T18:43:58.402Z,7.93
2022-11-21T18:46:32.693Z,7.93
2022-11-21T18:49:07.244Z,7.91
2022-11-21T18:51:40.595Z,7.92
2022-11-21T18:54:13.217Z,7.93
2022-11-21T18:56:45.461Z,7.96
2022-11-21T18:59:17.728Z,7.99
2022-11-21T19:01:50.899Z,8.02
2022-11-21T19:04:23.692Z,8.07
2022-11-21T19:06:56.355Z,8.09
2022-11-21T19:09:32.525Z,8.12
2022-11-21T19:12:05.245Z,8.13
2022-11-21T19:14:37.630Z,8.10
2022-11-21T19:17:09.955Z,8.02
2022-11-21T19:19:42.268Z,7.94
2022-11-21T19:22:14.613Z,7.91
2022-11-21T19:24:48.098Z,7.89
2022-11-21T19:27:24.401Z,7.89
2022-11-21T19:29:56.683Z,7.85
2022-11-21T19:32:30.963Z,7.84
2022-11-21T19:35:03.233Z,7.85
2022-11-21T19:37:35.555Z,7.84
2022-11-21T19:40:11.286Z,7.86
2022-11-21T19:42:42.633Z,7.88
2022-11-21T19:45:15.072Z,7.86
2022-11-21T19:47:48.045Z,7.85
2022-11-21T19:50:20.532Z,7.83
2022-11-21T19:52:52.970Z,7.81
2022-11-21T19:55:26.100Z,7.80
2022-11-21T19:57:58.346Z,7.78
2022-11-21T20:00:30.617Z,7.74
2022-11-21T20:03:02.963Z,7.73
2022-11-21T20:05:35.376Z,7.69
2022-11-21T20:08:15.303Z,7.68
2022-11-21T20:10:50.203Z,7.69
2022-11-21T20:13:22.587Z,7.68
2022-11-21T20:15:54.964Z,7.67
2022-11-21T20:18:28.823Z,7.66
2022-11-21T20:21:07.810Z,7.65
2022-11-21T20:23:40.198Z,7.63
2022-11-21T20:26:13.083Z,7.59
2022-11-21T20:28:45.535Z,7.54
2022-11-21T20:31:20.100Z,7.50
2022-11-21T20:33:54.150Z,7.45
2022-11-21T20:36:29.704Z,7.40
2022-11-21T20:39:04.393Z,7.34
2022-11-21T20:41:37.934Z,7.26
2022-11-21T20:47:07.298Z,7.16
2022-11-21T20:49:39.706Z,7.16
2022-11-21T20:55:04.899Z,7.13
2022-11-21T20:57:37.270Z,7.12
2022-11-21T21:00:12.841Z,7.13
2022-11-21T21:02:45.183Z,7.14
2022-11-21T21:05:17.721Z,7.13
2022-11-21T21:07:50.038Z,7.15
2022-11-21T21:10:25.480Z,7.17
2022-11-21T21:12:58.286Z,7.18
2022-11-21T21:15:30.630Z,7.18
2022-11-21T21:18:02.882Z,7.15
2022-11-21T21:20:49.279Z,7.11
2022-11-21T21:23:27.481Z,7.07
2022-11-21T21:26:07.793Z,7.05
2022-11-21T21:28:40.348Z,7.07
2022-11-21T21:31:15.162Z,7.07
2022-11-21T21:33:47.799Z,7.09
2022-11-21T21:36:22.498Z,7.11
2022-11-21T21:38:56.082Z,7.13
2022-11-21T21:41:30.379Z,7.11
2022-11-21T21:44:02.672Z,7.10
2022-11-21T21:46:34.903Z,7.10
2022-11-21T21:49:07.270Z,7.12
2022-11-21T21:51:40.332Z,7.14
2022-11-21T21:54:19.011Z,7.17
2022-11-21T21:56:51.365Z,7.20
2022-11-21T21:59:23.599Z,7.23
2022-11-21T22:01:55.929Z,7.26
2022-11-21T22:04:28.799Z,7.28
2022-11-21T22:07:01.523Z,7.29
2022-11-21T22:09:33.830Z,7.29
2022-11-21T22:12:06.659Z,7.28
2022-11-21T22:14:38.969Z,7.25
2022-11-21T22:17:11.196Z,7.22
2022-11-21T22:19:43.419Z,7.21
2022-11-21T22:22:15.779Z,7.22
2022-11-21T22:24:48.016Z,7.22
2022-11-21T22:27:20.383Z,7.24
2022-11-21T22:29:52.589Z,7.24
2022-11-21T22:32:24.840Z,7.22
2022-11-21T22:34:57.046Z,7.21
2022-11-21T22:37:29.280Z,7.20
2022-11-21T22:40:01.662Z,7.21
2022-11-21T22:42:33.916Z,7.21
2022-11-21T22:45:06.763Z,7.21
2022-11-21T22:47:42.357Z,7.20
2022-11-21T22:50:18.164Z,7.19
2022-11-21T22:52:50.446Z,7.19
2022-11-21T22:55:22.711Z,7.19
2022-11-21T22:57:55.152Z,7.18
2022-11-21T23:00:27.452Z,7.19
2022-11-21T23:03:01.417Z,7.12
2022-11-21T23:05:33.670Z,7.10
2022-11-21T23:08:06.343Z,7.14
2022-11-21T23:10:39.691Z,7.15
2022-11-21T23:13:12.066Z,7.17
2022-11-21T23:15:44.294Z,7.19
2022-11-21T23:18:17.024Z,7.20
2022-11-21T23:20:49.430Z,7.21
2022-11-21T23:23:21.699Z,7.24
2022-11-21T23:25:54.294Z,7.24
2022-11-21T23:28:26.637Z,7.23
2022-11-21T23:30:59.385Z,7.22
2022-11-21T23:33:31.819Z,7.22
2022-11-21T23:36:04.220Z,7.24
2022-11-21T23:38:36.450Z,7.24
2022-11-21T23:41:08.691Z,7.23
2022-11-21T23:43:40.947Z,7.22
2022-11-21T23:46:13.314Z,7.22
2022-11-21T23:48:45.544Z,7.23
2022-11-21T23:51:17.817Z,7.28
2022-11-21T23:53:50.050Z,7.31
2022-11-21T23:56:22.364Z,7.33
2022-11-21T23:58:54.625Z,7.34
